Time;durP1;ratioP1;P1;durP2;ratioP2;P2;SDS_P1;SDS_P2;PMS_P1;PMS_P2;Temp;Humidity;BMP_temperature;BMP_pressure;BME280_temperature;BME280_humidity;BME280_pressure;Samples;Min_cycle;Max_cycle;Signal;HPM_P1;HPM_P2
2022/10/08 00:01:42;;;;;;;8.53;2.60;;;;;;;13.18;100.00;101384.59;5024248;28;20665;-73
2022/10/08 00:04:10;;;;;;;7.30;2.33;;;;;;;13.01;100.00;101355.31;5004916;28;20459;-73
2022/10/08 00:06:35;;;;;;;11.93;3.10;;;;;;;13.03;100.00;101363.22;5026957;28;20201;-72
2022/10/08 00:09:05;;;;;;;11.80;2.13;;;;;;;13.39;100.00;101397.94;5011152;28;20665;-72
2022/10/08 00:11:37;;;;;;;8.93;2.80;;;;;;;13.03;100.00;101415.19;5029325;28;20270;-72
2022/10/08 00:14:04;;;;;;;5.70;2.50;;;;;;;12.79;100.00;101403.09;5028859;28;20459;-73
2022/10/08 00:16:35;;;;;;;6.90;2.60;;;;;;;12.87;100.00;101437.91;5028344;28;20469;-72
2022/10/08 00:19:14;;;;;;;10.40;2.53;;;;;;;12.69;100.00;101420.63;5024502;28;20463;-72
2022/10/08 00:21:42;;;;;;;6.03;2.00;;;;;;;12.81;100.00;101456.72;5029532;28;20422;-72
2022/10/08 00:24:15;;;;;;;7.20;2.57;;;;;;;12.72;100.00;101457.91;5029062;28;20458;-72
2022/10/08 00:26:41;;;;;;;7.37;2.17;;;;;;;12.63;100.00;101449.16;5016844;28;20431;-73
2022/10/08 00:29:08;;;;;;;10.03;2.87;;;;;;;12.25;100.00;101408.34;5015204;28;20453;-73
2022/10/08 00:31:39;;;;;;;6.07;2.17;;;;;;;11.77;100.00;101341.75;5021124;28;20467;-72
2022/10/08 00:34:08;;;;;;;8.47;2.47;;;;;;;12.55;100.00;101482.41;5017520;28;20502;-72
2022/10/08 00:36:36;;;;;;;5.07;2.07;;;;;;;12.16;100.00;101397.72;5027868;28;20513;-72
2022/10/08 00:39:10;;;;;;;8.67;2.70;;;;;;;12.64;100.00;101483.09;5008158;28;20487;-72
2022/10/08 00:41:37;;;;;;;6.70;2.17;;;;;;;12.66;100.00;101479.19;5006333;28;20882;-72
2022/10/08 00:44:41;;;;;;;7.30;2.97;;;;;;;12.69;100.00;101475.28;5021239;28;20473;-73
2022/10/08 00:47:37;;;;;;;7.20;2.63;;;;;;;12.60;100.00;101479.97;5020297;28;20447;-72
2022/10/08 00:50:08;;;;;;;5.83;2.40;;;;;;;12.67;100.00;101466.59;5025070;28;20447;-72
2022/10/08 00:52:49;;;;;;;9.80;3.00;;;;;;;12.70;100.00;101478.78;5025724;28;20450;-72
2022/10/08 00:55:17;;;;;;;11.73;2.60;;;;;;;12.64;100.00;101458.88;5023840;28;20439;-73
2022/10/08 00:57:43;;;;;;;7.00;2.00;;;;;;;12.75;100.00;101490.63;5027376;28;20498;-72
2022/10/08 01:00:16;;;;;;;7.50;1.87;;;;;;;12.77;100.00;101475.13;5020946;28;20573;-73
2022/10/08 01:02:41;;;;;;;5.33;1.90;;;;;;;12.51;100.00;101443.50;5028065;28;20200;-72
2022/10/08 01:05:08;;;;;;;4.53;1.93;;;;;;;12.54;100.00;101455.72;5032188;28;20921;-73
2022/10/08 01:07:42;;;;;;;4.67;1.70;;;;;;;12.57;100.00;101466.09;5036509;28;20192;-72
2022/10/08 01:10:23;;;;;;;5.20;1.80;;;;;;;12.66;100.00;101472.97;5033705;28;20431;-73
2022/10/08 01:13:10;;;;;;;7.20;1.97;;;;;;;12.36;100.00;101430.16;5035663;28;20545;-73
2022/10/08 01:15:44;;;;;;;4.90;1.60;;;;;;;12.67;100.00;101466.59;5038597;28;20458;-73
2022/10/08 01:18:31;;;;;;;4.53;1.40;;;;;;;12.43;100.00;101440.94;5032888;28;20942;-73
2022/10/08 01:21:16;;;;;;;4.70;1.60;;;;;;;12.77;100.00;101471.59;5010090;28;20979;-72
2022/10/08 01:24:09;;;;;;;4.00;1.47;;;;;;;12.64;100.00;101475.03;5026523;28;20576;-72
2022/10/08 01:26:39;;;;;;;6.43;1.70;;;;;;;12.38;100.00;101440.69;5026283;28;20415;-72
2022/10/08 01:29:23;;;;;;;4.53;1.90;;;;;;;12.25;100.00;101438.75;5009773;28;20451;-72
2022/10/08 01:31:54;;;;;;;4.43;1.60;;;;;;;12.69;100.00;101480.66;5009067;28;20442;-72
2022/10/08 01:34:31;;;;;;;8.60;2.50;;;;;;;12.08;100.00;101391.66;5009107;28;20477;-72
2022/10/08 01:36:59;;;;;;;5.30;1.77;;;;;;;12.52;100.00;101490.06;5026642;28;20434;-72
2022/10/08 01:39:30;;;;;;;7.33;1.90;;;;;;;12.35;100.00;101502.97;5028076;28;20818;-72
2022/10/08 01:41:59;;;;;;;5.93;2.00;;;;;;;11.92;100.00;101428.56;5026910;28;20427;-73
2022/10/08 01:44:41;;;;;;;5.33;1.97;;;;;;;12.15;100.00;101436.41;5025663;28;20475;-72
2022/10/08 01:47:11;;;;;;;4.80;1.83;;;;;;;12.38;100.00;101500.75;5005719;28;21024;-72
2022/10/08 01:49:45;;;;;;;8.03;2.20;;;;;;;12.42;100.00;101498.47;5007308;28;20438;-72
2022/10/08 01:52:37;;;;;;;6.13;2.07;;;;;;;12.48;100.00;101483.41;5023742;28;20809;-72
2022/10/08 01:55:11;;;;;;;9.70;2.17;;;;;;;12.46;100.00;101482.78;5018033;28;20867;-73
2022/10/08 01:57:38;;;;;;;6.90;1.90;;;;;;;12.01;100.00;101414.97;5024158;28;20462;-72
2022/10/08 02:00:12;;;;;;;10.10;2.83;;;;;;;12.41;100.00;101504.88;5022782;28;20854;-72
2022/10/08 02:02:38;;;;;;;6.03;1.77;;;;;;;12.28;100.00;101469.81;5020014;28;20443;-72
2022/10/08 02:05:05;;;;;;;7.83;2.77;;;;;;;12.38;100.00;101499.88;5020234;28;20447;-72
2022/10/08 02:07:34;;;;;;;6.10;2.13;;;;;;;12.21;100.00;101484.03;5022882;28;20447;-72
2022/10/08 02:10:08;;;;;;;6.10;2.10;;;;;;;12.19;100.00;101478.00;5018763;28;20438;-73
2022/10/08 02:12:34;;;;;;;6.63;1.90;;;;;;;12.30;100.00;101510.81;5023833;28;20453;-72
2022/10/08 02:15:03;;;;;;;5.20;1.97;;;;;;;12.22;100.00;101490.25;5005073;28;21079;-72
2022/10/08 02:17:49;;;;;;;7.63;1.97;;;;;;;12.35;100.00;101521.78;5021672;28;20532;-72
2022/10/08 02:20:32;;;;;;;4.20;1.63;;;;;;;12.14;100.00;101477.75;5023255;28;21041;-72
2022/10/08 02:23:04;;;;;;;7.43;2.00;;;;;;;12.27;100.00;101512.03;5004203;28;20454;-72
2022/10/08 02:25:42;;;;;;;10.63;2.40;;;;;;;12.20;100.00;101520.00;5021921;28;20475;-72
2022/10/08 02:28:23;;;;;;;5.43;1.87;;;;;;;12.05;100.00;101511.19;5006714;28;20466;-72
2022/10/08 02:31:16;;;;;;;9.67;1.77;;;;;;;11.96;100.00;101513.16;5027610;28;20430;-72
2022/10/08 02:33:47;;;;;;;9.13;1.90;;;;;;;12.10;100.00;101514.13;4990191;28;20493;-72
2022/10/08 02:36:17;;;;;;;5.40;1.90;;;;;;;11.84;100.00;101487.78;5029754;28;20446;-72
2022/10/08 02:38:52;;;;;;;3.87;1.50;;;;;;;12.09;100.00;101522.38;5022046;28;20499;-72
2022/10/08 02:41:22;;;;;;;7.07;2.07;;;;;;;11.90;100.00;101495.13;5022852;28;20450;-72
2022/10/08 02:43:49;;;;;;;4.27;1.60;;;;;;;11.97;100.00;101506.75;5029092;28;21450;-72
2022/10/08 02:46:17;;;;;;;5.90;1.83;;;;;;;11.94;100.00;101519.75;5019477;28;20529;-72
2022/10/08 02:49:11;;;;;;;10.23;2.10;;;;;;;11.72;100.00;101492.84;5026431;28;20446;-73
2022/10/08 02:51:44;;;;;;;4.27;1.77;;;;;;;11.88;100.00;101524.03;5027643;28;20466;-72
2022/10/08 02:54:11;;;;;;;5.00;1.93;;;;;;;11.40;100.00;101426.97;5009130;28;20548;-72
2022/10/08 02:56:46;;;;;;;6.73;1.40;;;;;;;11.75;100.00;101499.69;5026073;28;20450;-72
2022/10/08 02:59:16;;;;;;;7.20;2.50;;;;;;;12.01;100.00;101523.34;5027885;28;20481;-73
2022/10/08 03:01:49;;;;;;;4.90;1.70;;;;;;;11.96;100.00;101523.91;5003947;28;20458;-72
2022/10/08 03:04:21;;;;;;;5.47;1.80;;;;;;;11.82;100.00;101519.41;5025417;28;20619;-72
2022/10/08 03:06:50;;;;;;;6.57;2.27;;;;;;;11.51;100.00;101482.91;5025029;28;20470;-73
2022/10/08 03:09:17;;;;;;;5.50;1.40;;;;;;;11.83;100.00;101536.34;5027262;28;20439;-73
2022/10/08 03:11:43;;;;;;;5.57;1.70;;;;;;;11.11;100.00;101427.03;5026854;28;20439;-73
2022/10/08 03:14:12;;;;;;;7.77;2.07;;;;;;;11.54;100.00;101477.16;5025851;28;20481;-73
2022/10/08 03:16:41;;;;;;;6.70;1.87;;;;;;;11.79;100.00;101527.00;5026007;28;20188;-73
2022/10/08 03:19:09;;;;;;;6.87;1.97;;;;;;;11.81;100.00;101536.56;5022652;28;20463;-73
2022/10/08 03:21:36;;;;;;;3.50;1.53;;;;;;;11.44;100.00;101487.34;5010305;28;20483;-72
2022/10/08 03:24:01;;;;;;;4.80;1.90;;;;;;;11.36;100.00;101465.13;5011909;28;20455;-73
2022/10/08 03:26:27;;;;;;;4.17;1.80;;;;;;;11.21;100.00;101454.44;5011973;28;20484;-73
2022/10/08 03:28:52;;;;;;;6.33;1.43;;;;;;;11.73;100.00;101542.03;5010047;28;20235;-73
2022/10/08 03:31:18;;;;;;;6.27;1.33;;;;;;;11.08;100.00;101441.69;5008082;28;20601;-73
2022/10/08 03:33:49;;;;;;;8.80;2.23;;;;;;;10.78;100.00;101425.59;5027292;28;20561;-73
2022/10/08 03:36:14;;;;;;;6.30;1.90;;;;;;;11.65;100.00;101542.97;5022156;28;20189;-73
2022/10/08 03:38:39;;;;;;;11.90;1.90;;;;;;;11.05;100.00;101469.72;5024440;28;20517;-73
2022/10/08 03:41:05;;;;;;;6.93;1.40;;;;;;;11.56;100.00;101545.97;5027557;28;20215;-73
2022/10/08 03:43:33;;;;;;;6.33;1.53;;;;;;;11.06;100.00;101470.56;5039162;28;20295;-74
2022/10/08 03:45:58;;;;;;;5.47;1.73;;;;;;;11.68;100.00;101544.44;5029168;28;20206;-73
2022/10/08 03:48:24;;;;;;;4.00;1.47;;;;;;;11.70;100.00;101554.00;5007663;28;20439;-73
2022/10/08 03:50:55;;;;;;;5.83;1.53;;;;;;;11.37;100.00;101507.06;5022241;28;20729;-73
2022/10/08 03:53:22;;;;;;;3.77;1.33;;;;;;;11.46;100.00;101554.34;5026790;28;20212;-73
2022/10/08 03:55:47;;;;;;;4.93;1.43;;;;;;;11.28;100.00;101534.06;5004688;28;20554;-73
2022/10/08 03:58:13;;;;;;;3.27;1.20;;;;;;;11.28;100.00;101547.50;5025492;28;20518;-73
2022/10/08 04:00:39;;;;;;;3.50;1.40;;;;;;;11.43;100.00;101570.81;5024734;28;20220;-74
2022/10/08 04:03:05;;;;;;;7.00;1.70;;;;;;;11.08;100.00;101519.53;5007121;28;20693;-74
2022/10/08 04:05:30;;;;;;;5.60;1.87;;;;;;;11.49;100.00;101559.31;5008388;28;20864;-73
2022/10/08 04:07:55;;;;;;;3.67;1.40;;;;;;;11.28;100.00;101546.63;5024599;28;20191;-73
2022/10/08 04:10:21;;;;;;;8.90;2.00;;;;;;;10.89;100.00;101472.59;5006861;28;20246;-73
2022/10/08 04:12:46;;;;;;;4.63;1.80;;;;;;;11.09;100.00;101535.44;5022158;28;20272;-73
2022/10/08 04:15:12;;;;;;;5.87;1.53;;;;;;;11.36;100.00;101567.19;5025030;28;20184;-73
2022/10/08 04:17:40;;;;;;;5.10;1.50;;;;;;;9.05;100.00;101197.84;5041285;22;20236;-76
2022/10/08 04:20:05;;;;;;;2.37;1.37;;;;;;;9.78;100.00;101341.97;5006589;28;20203;-76
2022/10/08 04:22:31;;;;;;;4.63;1.53;;;;;;;10.08;100.00;101377.69;5029392;28;20960;-76
2022/10/08 04:24:56;;;;;;;7.13;2.27;;;;;;;11.43;100.00;101576.19;5031746;28;20310;-77
2022/10/08 04:27:22;;;;;;;12.23;2.20;;;;;;;11.17;100.00;101563.25;5028447;28;20212;-77
2022/10/08 04:29:47;;;;;;;6.23;1.70;;;;;;;10.50;100.00;101449.56;5029269;28;20184;-76
2022/10/08 04:32:13;;;;;;;5.90;1.70;;;;;;;9.43;100.00;101277.31;5030312;28;20188;-76
2022/10/08 04:34:38;;;;;;;4.93;1.80;;;;;;;9.03;100.00;101177.63;5008139;28;20200;-76
2022/10/08 04:37:03;;;;;;;6.87;1.53;;;;;;;9.70;100.00;101338.34;5029455;28;20219;-77
2022/10/08 04:39:29;;;;;;;6.50;1.60;;;;;;;10.07;100.00;101376.06;5027679;28;20250;-77
2022/10/08 04:41:54;;;;;;;5.33;1.90;;;;;;;10.49;100.00;101428.25;5029806;28;20679;-77
2022/10/08 04:44:20;;;;;;;6.10;1.67;;;;;;;10.15;100.00;101368.75;5033482;28;20192;-76
2022/10/08 04:46:45;;;;;;;6.43;1.77;;;;;;;10.46;100.00;101381.19;5028647;28;20195;-78
2022/10/08 04:49:11;;;;;;;6.63;1.83;;;;;;;9.77;100.00;101319.69;5027709;28;20211;-76
2022/10/08 04:51:36;;;;;;;4.30;1.43;;;;;;;10.66;100.00;101448.53;5023248;28;20219;-76
2022/10/08 04:54:01;;;;;;;5.10;1.60;;;;;;;9.33;100.00;101239.25;5030324;28;20219;-77
2022/10/08 04:56:30;;;;;;;7.37;1.70;;;;;;;11.28;100.00;101570.81;5027263;28;20200;-76
2022/10/08 04:58:57;;;;;;;7.77;1.50;;;;;;;10.57;100.00;101444.28;5030684;28;20253;-77
2022/10/08 05:01:24;;;;;;;10.47;1.53;;;;;;;10.55;100.00;101443.63;5011617;28;20431;-76
2022/10/08 05:03:51;;;;;;;3.40;1.50;;;;;;;10.30;100.00;101387.56;5022720;28;20443;-76
2022/10/08 05:06:20;;;;;;;5.00;2.13;;;;;;;9.53;100.00;101236.91;5025080;28;20849;-76
2022/10/08 05:08:46;;;;;;;5.40;1.67;;;;;;;11.14;100.00;101513.41;5025856;28;20490;-76
2022/10/08 05:11:13;;;;;;;7.83;1.93;;;;;;;10.11;100.00;101335.28;5030903;28;20504;-77
2022/10/08 05:13:39;;;;;;;5.80;1.80;;;;;;;9.70;100.00;101291.97;5021978;28;20452;-76
2022/10/08 05:16:10;;;;;;;4.00;1.50;;;;;;;9.42;100.00;101275.66;5029013;28;20453;-76
2022/10/08 05:18:36;;;;;;;5.93;1.90;;;;;;;10.56;100.00;101407.75;5031772;28;20221;-76
2022/10/08 05:21:10;;;;;;;5.13;1.63;;;;;;;9.07;100.00;101178.94;5033474;28;20462;-76
2022/10/08 05:23:37;;;;;;;5.30;1.90;;;;;;;9.40;100.00;101245.53;5028355;28;20666;-75
2022/10/08 05:26:17;;;;;;;8.23;2.00;;;;;;;9.02;100.00;101195.50;5030203;28;20430;-77
2022/10/08 05:28:45;;;;;;;5.93;2.13;;;;;;;10.81;100.00;101481.56;5020908;28;20925;-76
2022/10/08 05:31:12;;;;;;;5.60;1.43;;;;;;;10.32;100.00;101400.78;5030037;28;20443;-75
2022/10/08 05:33:38;;;;;;;6.33;1.90;;;;;;;9.37;100.00;101251.25;5020663;28;20474;-75
2022/10/08 05:36:06;;;;;;;4.87;1.70;;;;;;;9.78;100.00;101326.75;5004301;28;20538;-74
2022/10/08 05:38:33;;;;;;;5.30;1.63;;;;;;;11.47;100.00;101591.72;5002533;28;20797;-75
2022/10/08 05:41:20;;;;;;;7.10;2.07;;;;;;;10.29;100.00;101428.78;5010905;28;20481;-76
2022/10/08 05:43:46;;;;;;;5.83;1.90;;;;;;;9.60;100.00;101319.00;5000686;28;20482;-75
2022/10/08 05:46:12;;;;;;;10.63;1.90;;;;;;;9.48;100.00;101302.53;5016853;28;20443;-75
2022/10/08 05:48:38;;;;;;;7.50;2.60;;;;;;;9.78;100.00;101363.38;5026333;28;20470;-76
2022/10/08 05:51:06;;;;;;;6.23;1.77;;;;;;;10.52;100.00;101455.53;5013891;28;20440;-76
2022/10/08 05:53:40;;;;;;;13.33;2.40;;;;;;;9.57;100.00;101337.28;5032327;28;21009;-76
2022/10/08 05:56:07;;;;;;;5.90;1.87;;;;;;;9.93;100.00;101404.47;5029891;28;20507;-76
2022/10/08 05:58:35;;;;;;;7.33;1.77;;;;;;;9.34;100.00;101289.94;5030694;28;20442;-77
2022/10/08 06:01:05;;;;;;;9.27;1.67;;;;;;;9.95;100.00;101379.16;5033814;28;21022;-76
2022/10/08 06:03:31;;;;;;;6.60;2.07;;;;;;;9.46;100.00;101285.00;5036610;28;20418;-76
2022/10/08 06:06:06;;;;;;;9.93;1.90;;;;;;;9.14;100.00;101241.44;5037251;28;20427;-76
2022/10/08 06:08:32;;;;;;;6.07;1.73;;;;;;;8.95;100.00;101228.53;5020277;28;20554;-76
2022/10/08 06:10:58;;;;;;;7.80;1.90;;;;;;;9.58;100.00;101350.50;5036444;28;20423;-76
2022/10/08 06:13:25;;;;;;;8.30;2.00;;;;;;;9.59;100.00;101325.38;5036215;28;20435;-76
2022/10/08 06:15:58;;;;;;;6.43;1.80;;;;;;;8.87;100.00;101217.88;5037788;28;20263;-76
2022/10/08 06:18:25;;;;;;;5.03;2.00;;;;;;;9.17;100.00;101261.63;5029096;28;21369;-76
2022/10/08 06:20:50;;;;;;;6.20;1.57;;;;;;;10.60;100.00;101530.59;5018309;28;20475;-77
2022/10/08 06:23:17;;;;;;;6.77;2.10;;;;;;;8.83;100.00;101222.75;5035838;28;21443;-76
2022/10/08 06:25:42;;;;;;;8.07;1.50;;;;;;;9.24;100.00;101258.06;5035331;28;20566;-75
2022/10/08 06:28:07;;;;;;;9.30;2.10;;;;;;;9.41;100.00;101324.88;5035062;28;20437;-76
2022/10/08 06:30:33;;;;;;;10.90;2.10;;;;;;;9.97;100.00;101413.81;5035307;28;20923;-74
2022/10/08 06:32:58;;;;;;;7.30;1.70;;;;;;;9.83;100.00;101390.47;5022752;28;20192;-75
2022/10/08 06:35:24;;;;;;;8.83;2.00;;;;;;;9.97;100.00;101408.44;5032814;28;20662;-75
2022/10/08 06:37:49;;;;;;;3.77;1.43;;;;;;;10.03;100.00;101429.16;5029529;28;20632;-75
2022/10/08 06:40:15;;;;;;;6.93;1.67;;;;;;;10.61;100.00;101515.31;5018139;28;20219;-75
2022/10/08 06:42:41;;;;;;;10.93;2.50;;;;;;;10.07;100.00;101427.81;5030034;28;20185;-74
2022/10/08 06:45:07;;;;;;;8.13;1.97;;;;;;;10.23;100.00;101463.50;5020447;28;20807;-75
2022/10/08 06:47:32;;;;;;;7.37;1.73;;;;;;;10.92;100.00;101525.91;5021680;28;20239;-76
2022/10/08 06:49:58;;;;;;;5.43;1.90;;;;;;;9.50;100.00;101338.00;5011728;28;20943;-76
2022/10/08 06:52:23;;;;;;;7.30;2.07;;;;;;;10.71;100.00;101526.63;5026796;28;20275;-76
2022/10/08 06:54:49;;;;;;;6.47;1.90;;;;;;;10.98;100.00;101517.09;5029844;28;20278;-77
2022/10/08 06:57:15;;;;;;;6.63;2.03;;;;;;;9.59;100.00;101322.69;5024662;28;20208;-77
2022/10/08 06:59:40;;;;;;;8.10;2.23;;;;;;;10.64;100.00;101469.34;5028811;28;20761;-78
2022/10/08 07:02:09;;;;;;;8.10;1.87;;;;;;;10.58;100.00;101421.78;5008310;28;20533;-78
2022/10/08 07:04:34;;;;;;;6.83;1.50;;;;;;;9.67;100.00;101282.47;5012606;28;20284;-72
2022/10/08 07:07:00;;;;;;;10.07;1.90;;;;;;;10.61;100.00;101465.16;5028323;28;20536;-75
2022/10/08 07:09:28;;;;;;;12.20;2.07;;;;;;;12.25;100.00;101682.69;5029748;28;20214;-73
2022/10/08 07:11:54;;;;;;;6.77;1.77;;;;;;;11.02;100.00;101467.41;5014216;28;20274;-76
2022/10/08 07:14:20;;;;;;;12.30;1.87;;;;;;;11.49;100.00;101541.34;5012990;28;20525;-75
2022/10/08 07:16:46;;;;;;;9.63;2.73;;;;;;;10.52;100.00;101384.97;5024000;28;20288;-72
2022/10/08 07:19:12;;;;;;;7.53;1.90;;;;;;;11.08;100.00;101444.38;5011497;28;20574;-76
2022/10/08 07:21:39;;;;;;;11.70;2.53;;;;;;;10.35;100.00;101333.38;5025174;28;20442;-73
2022/10/08 07:24:04;;;;;;;10.90;2.30;;;;;;;11.68;100.00;101544.44;5027364;28;21054;-75
2022/10/08 07:26:33;;;;;;;7.33;2.53;;;;;;;10.43;100.00;101338.66;5021692;28;20525;-75
2022/10/08 07:29:07;;;;;;;10.43;2.47;;;;;;;11.69;100.00;101581.06;5027342;28;20298;-72
2022/10/08 07:31:35;;;;;;;7.03;2.23;;;;;;;12.34;100.00;101736.19;5030803;28;20439;-73
2022/10/08 07:34:03;;;;;;;5.87;1.83;;;;;;;10.23;100.00;101401.84;5022915;28;20936;-73
2022/10/08 07:36:28;;;;;;;8.80;2.43;;;;;;;10.10;100.00;101395.28;5023536;28;20449;-74
2022/10/08 07:38:59;;;;;;;6.70;1.40;;;;;;;10.32;100.00;101444.50;5024737;28;21095;-75
2022/10/08 07:41:26;;;;;;;6.47;1.87;;;;;;;12.09;100.00;101727.59;5020845;28;20447;-74
2022/10/08 07:43:53;;;;;;;5.70;1.60;;;;;;;11.31;100.00;101625.00;5013593;28;20438;-74
2022/10/08 07:46:19;;;;;;;7.13;1.73;;;;;;;10.75;100.00;101521.72;5014284;28;20453;-73
2022/10/08 07:48:45;;;;;;;6.80;1.50;;;;;;;10.38;100.00;101456.34;5027194;28;20467;-73
2022/10/08 07:51:16;;;;;;;5.03;1.73;;;;;;;10.88;100.00;101555.97;5025670;28;20200;-75
2022/10/08 07:53:42;;;;;;;8.43;1.80;;;;;;;11.36;100.00;101645.09;5022007;28;20184;-72
2022/10/08 07:56:10;;;;;;;6.80;1.83;;;;;;;10.01;100.00;101478.59;5023293;28;20446;-75
2022/10/08 07:58:36;;;;;;;5.73;1.37;;;;;;;10.61;100.00;101550.19;5022696;28;20549;-73
2022/10/08 08:01:03;;;;;;;5.50;1.40;;;;;;;11.37;100.00;101652.97;5010091;28;20896;-74
2022/10/08 08:03:29;;;;;;;7.60;1.67;;;;;;;10.58;100.00;101567.47;5024457;28;20670;-75
2022/10/08 08:06:03;;;;;;;4.20;1.60;;;;;;;10.92;100.00;101578.75;5027667;28;20534;-74
2022/10/08 08:08:29;;;;;;;6.30;2.50;;;;;;;10.34;100.00;101539.03;5026528;28;20507;-72
2022/10/08 08:10:57;;;;;;;9.97;2.27;;;;;;;9.58;100.00;101435.38;5017323;28;20514;-73
2022/10/08 08:13:22;;;;;;;8.00;1.93;;;;;;;10.21;100.00;101536.06;5021662;28;20281;-73
2022/10/08 08:15:55;;;;;;;7.20;2.20;;;;;;;10.00;100.00;101474.25;5005893;28;21063;-73
2022/10/08 08:18:21;;;;;;;7.00;1.60;;;;;;;11.36;100.00;101682.69;5026085;28;20353;-74
2022/10/08 08:20:46;;;;;;;7.53;1.50;;;;;;;10.67;100.00;101592.38;5009617;28;20478;-73
2022/10/08 08:23:11;;;;;;;6.33;1.50;;;;;;;9.77;100.00;101447.47;5006039;28;20254;-74
2022/10/08 08:25:37;;;;;;;8.50;2.10;;;;;;;11.12;100.00;101734.78;5024247;28;20334;-73
2022/10/08 08:28:02;;;;;;;6.63;1.70;;;;;;;10.33;100.00;101556.13;5029324;28;20208;-73
2022/10/08 08:30:28;;;;;;;6.70;1.47;;;;;;;10.08;100.00;101531.31;5028964;28;20621;-72
2022/10/08 08:32:53;;;;;;;8.73;1.93;;;;;;;9.88;100.00;101452.41;5028382;28;20636;-75
2022/10/08 08:35:18;;;;;;;6.23;1.53;;;;;;;10.91;100.00;101583.28;5025896;28;20734;-75
2022/10/08 08:37:44;;;;;;;8.30;1.50;;;;;;;10.40;100.00;101564.28;5029910;28;20199;-73
2022/10/08 08:40:10;;;;;;;7.13;1.20;;;;;;;10.50;100.00;101602.44;5026559;28;20212;-75
2022/10/08 08:42:48;;;;;;;8.80;2.10;;;;;;;11.42;100.00;101784.88;5025574;28;20207;-75
2022/10/08 08:45:24;;;;;;;5.20;1.30;;;;;;;10.85;100.00;101659.19;5027031;28;20727;-72
2022/10/08 08:48:01;;;;;;;9.90;1.80;;;;;;;10.70;100.00;101685.94;5027775;28;21079;-70
2022/10/08 08:50:33;;;;;;;3.80;0.93;;;;;;;11.87;100.00;101873.72;5020436;28;20446;-71
2022/10/08 08:53:00;;;;;;;3.90;1.30;;;;;;;11.18;100.00;101759.06;5008100;28;20438;-73
2022/10/08 08:55:33;;;;;;;9.77;1.87;;;;;;;11.56;100.00;101865.69;5027057;28;20474;-72
2022/10/08 08:58:14;;;;;;;4.87;1.10;;;;;;;10.82;100.00;101745.41;5026415;28;20477;-71
2022/10/08 09:00:43;;;;;;;8.50;1.73;;;;;;;11.21;100.00;101803.53;5008929;28;20477;-71
2022/10/08 09:03:19;;;;;;;3.60;1.00;;;;;;;11.07;100.00;101754.09;5028333;28;20445;-74
2022/10/08 09:05:47;;;;;;;4.70;1.20;;;;;;;11.62;100.00;101849.69;5029882;28;20437;-74
2022/10/08 09:08:30;;;;;;;5.23;1.50;;;;;;;11.66;100.00;101845.63;5030210;28;20502;-72
2022/10/08 09:11:01;;;;;;;7.57;2.10;;;;;;;11.44;100.00;101800.81;5029374;28;20438;-71
2022/10/08 09:13:30;;;;;;;3.40;1.17;;;;;;;11.96;100.00;101861.84;5013300;28;20499;-73
2022/10/08 09:15:56;;;;;;;5.20;1.20;;;;;;;12.03;100.00;101867.31;5028192;28;20516;-75
2022/10/08 09:18:22;;;;;;;2.07;0.80;;;;;;;11.56;100.00;101753.69;5024343;28;20478;-73
2022/10/08 09:20:48;;;;;;;1.97;1.00;;;;;;;11.32;100.00;101731.41;5034842;28;20459;-75
2022/10/08 09:23:17;;;;;;;5.93;1.17;;;;;;;12.41;100.00;101870.78;5028956;28;20451;-77
2022/10/08 09:25:48;;;;;;;3.10;1.10;;;;;;;11.88;100.00;101771.34;5018146;28;20453;-75
2022/10/08 09:28:43;;;;;;;3.97;1.20;;;;;;;12.48;100.00;101833.22;5029914;28;20881;-73
2022/10/08 09:31:31;;;;;;;8.70;1.57;;;;;;;12.76;100.00;101866.50;5026267;28;20431;-76
2022/10/08 09:34:16;;;;;;;5.90;1.27;;;;;;;12.69;100.00;101880.91;5027367;28;20943;-75
2022/10/08 09:36:53;;;;;;;4.87;1.60;;;;;;;12.96;100.00;101892.81;5030323;28;20448;-75
2022/10/08 09:39:24;;;;;;;5.33;1.67;;;;;;;12.88;100.00;101893.78;5011609;28;20950;-82
2022/10/08 09:42:13;;;;;;;5.73;1.43;;;;;;;13.01;100.00;101877.75;5031028;28;20429;-76
2022/10/08 09:44:48;;;;;;;5.13;1.10;;;;;;;13.07;100.00;101879.69;5014388;28;20804;-76
2022/10/08 09:47:16;;;;;;;7.13;1.40;;;;;;;12.65;100.00;101805.06;5029226;28;20980;-77
2022/10/08 09:49:42;;;;;;;4.03;1.30;;;;;;;12.80;100.00;101829.25;5027358;28;20961;-76
2022/10/08 09:52:18;;;;;;;2.90;1.00;;;;;;;12.55;100.00;101734.56;5027673;28;20443;-76
2022/10/08 09:54:51;;;;;;;3.30;1.50;;;;;;;13.51;100.00;101867.13;5030881;28;20465;-76
2022/10/08 09:57:19;;;;;;;5.57;1.40;;;;;;;13.75;100.00;101880.22;5032448;28;20442;-76
2022/10/08 09:59:56;;;;;;;8.90;2.20;;;;;;;13.69;100.00;101872.91;5031025;28;20515;-76
2022/10/08 10:02:33;;;;;;;6.60;1.63;;;;;;;13.00;100.00;101752.22;5034049;28;20435;-76
2022/10/08 10:05:02;;;;;;;4.50;1.20;;;;;;;11.83;100.00;101488.81;5032710;28;20513;-77
2022/10/08 10:07:40;;;;;;;5.03;1.50;;;;;;;13.96;100.00;101848.84;5017961;28;20442;-77
2022/10/08 10:10:16;;;;;;;7.07;1.20;;;;;;;11.60;100.00;101488.13;5032163;28;20414;-77
2022/10/08 10:12:45;;;;;;;5.53;1.37;;;;;;;13.16;100.00;101761.06;5033485;28;21009;-76
2022/10/08 10:15:17;;;;;;;6.67;1.43;;;;;;;12.61;100.00;101677.28;5030682;28;20431;-76
2022/10/08 10:17:51;;;;;;;6.30;1.40;;;;;;;14.16;100.00;101887.56;5034833;28;20461;-77
2022/10/08 10:20:26;;;;;;;7.17;1.40;;;;;;;12.51;100.00;101569.97;5033316;28;20462;-77
2022/10/08 10:22:58;;;;;;;8.83;1.77;;;;;;;14.37;100.00;101875.88;5016276;28;20428;-77
2022/10/08 10:25:36;;;;;;;7.37;1.70;;;;;;;13.59;100.00;101761.84;5031665;28;20434;-77
2022/10/08 10:28:27;;;;;;;8.50;1.57;;;;;;;14.08;100.00;101833.75;5034289;28;21009;-75
2022/10/08 10:31:15;;;;;;;6.60;2.10;;;;;;;14.24;100.00;101902.78;5032938;28;20498;-75
2022/10/08 10:33:51;;;;;;;12.23;1.70;;;;;;;11.38;100.00;101496.16;5033464;28;20774;-75
2022/10/08 10:36:17;;;;;;;15.07;2.50;;;;;;;13.24;100.00;101928.78;5032106;28;20414;-76
2022/10/08 10:39:03;;;;;;;7.03;1.60;;;;;;;10.92;100.00;101536.63;5030589;28;20483;-77
2022/10/08 10:41:37;;;;;;;6.57;2.10;;;;;;;12.43;100.00;101825.69;5032617;28;20434;-77
2022/10/08 10:44:10;;;;;;;9.40;2.13;;;;;;;11.75;100.00;101672.53;5030726;28;20447;-78
2022/10/08 10:46:50;;;;;;;10.40;3.43;;;;;;;11.56;100.00;101638.16;5030305;28;20486;-77
2022/10/08 10:49:37;;;;;;;4.30;1.60;;;;;;;11.66;100.00;101584.97;5033153;28;20419;-78
2022/10/08 10:52:33;;;;;;;10.37;2.30;;;;;;;11.90;100.00;101609.88;5032037;28;20454;-77
2022/10/08 10:55:22;;;;;;;10.17;2.30;;;;;;;14.13;100.00;101914.94;5036756;28;20423;-79
2022/10/08 10:57:53;;;;;;;11.23;2.37;;;;;;;14.29;100.00;101910.28;5033834;28;20951;-78
2022/10/08 11:00:27;;;;;;;7.10;1.83;;;;;;;14.55;100.00;101902.41;5035709;28;20585;-78
2022/10/08 11:03:22;;;;;;;13.07;1.80;;;;;;;14.02;100.00;101775.22;5037988;28;20437;-78
2022/10/08 11:06:04;;;;;;;7.40;1.60;;;;;;;13.63;100.00;101729.97;5028869;28;20441;-79
2022/10/08 11:09:22;;;;;;;8.67;2.30;;;;;;;14.90;100.00;101903.19;5035376;28;20450;-79
2022/10/08 11:11:53;;;;;;;9.70;2.23;;;;;;;14.07;100.00;101815.91;4995954;28;20542;-79
2022/10/08 11:14:27;;;;;;;5.30;1.20;;;;;;;14.92;100.00;101895.69;5025509;28;20489;-79
2022/10/08 11:17:14;;;;;;;10.93;2.43;;;;;;;14.52;100.00;101913.56;5024047;28;20923;-78
2022/10/08 11:20:00;;;;;;;8.43;1.93;;;;;;;13.26;100.00;101680.78;5023377;28;20540;-76
2022/10/08 11:22:41;;;;;;;11.87;2.10;;;;;;;13.22;100.00;101717.19;5027742;28;21012;-77
2022/10/08 11:25:18;;;;;;;6.50;1.70;;;;;;;14.69;100.00;101905.97;5014605;28;20443;-76
2022/10/08 11:27:44;;;;;;;5.67;1.47;;;;;;;14.77;100.00;101908.53;5022988;28;20466;-75
2022/10/08 11:30:14;;;;;;;6.30;2.07;;;;;;;12.98;100.00;101613.41;5026831;28;20443;-78
2022/10/08 11:32:43;;;;;;;9.50;1.70;;;;;;;14.05;100.00;101761.31;5017283;28;20194;-74
2022/10/08 11:35:36;;;;;;;5.90;1.30;;;;;;;15.04;100.00;101911.31;5018657;28;20430;-78